sensor_id;sensor_type;location;lat;lon;timestamp;P1;durP1;ratioP1;P2;durP2;ratioP2
32734;SDS011;19112;51.076;3.706;2024-03-25T00:02:09;29.23;;;10.52;;
32734;SDS011;19112;51.076;3.706;2024-03-25T00:04:35;25.15;;;11.45;;
32734;SDS011;19112;51.076;3.706;2024-03-25T00:07:03;23.63;;;10.77;;
32734;SDS011;19112;51.076;3.706;2024-03-25T00:09:29;20.55;;;9.32;;
32734;SDS011;19112;51.076;3.706;2024-03-25T00:11:55;24.73;;;10.77;;
32734;SDS011;19112;51.076;3.706;2024-03-25T00:14:24;25.70;;;10.50;;
32734;SDS011;19112;51.076;3.706;2024-03-25T00:16:50;24.38;;;10.23;;
32734;SDS011;19112;51.076;3.706;2024-03-25T00:19:16;24.05;;;10.52;;
32734;SDS011;19112;51.076;3.706;2024-03-25T00:21:44;28.30;;;11.30;;
32734;SDS011;19112;51.076;3.706;2024-03-25T00:24:11;28.33;;;12.00;;
32734;SDS011;19112;51.076;3.706;2024-03-25T00:26:40;28.52;;;11.55;;
32734;SDS011;19112;51.076;3.706;2024-03-25T00:29:08;25.92;;;10.48;;
32734;SDS011;19112;51.076;3.706;2024-03-25T00:31:34;27.13;;;11.90;;
32734;SDS011;19112;51.076;3.706;2024-03-25T00:34:00;26.50;;;11.55;;
32734;SDS011;19112;51.076;3.706;2024-03-25T00:36:35;25.58;;;11.25;;
32734;SDS011;19112;51.076;3.706;2024-03-25T00:39:02;25.83;;;11.70;;
32734;SDS011;19112;51.076;3.706;2024-03-25T00:41:28;26.20;;;11.20;;
32734;SDS011;19112;51.076;3.706;2024-03-25T00:43:54;24.90;;;10.52;;
32734;SDS011;19112;51.076;3.706;2024-03-25T00:46:21;26.63;;;11.73;;
32734;SDS011;19112;51.076;3.706;2024-03-25T00:48:47;25.13;;;10.95;;
32734;SDS011;19112;51.076;3.706;2024-03-25T00:51:14;24.77;;;10.95;;
32734;SDS011;19112;51.076;3.706;2024-03-25T00:53:42;28.08;;;11.05;;
32734;SDS011;19112;51.076;3.706;2024-03-25T00:56:08;27.27;;;12.18;;
32734;SDS011;19112;51.076;3.706;2024-03-25T00:58:34;29.98;;;12.85;;
32734;SDS011;19112;51.076;3.706;2024-03-25T01:01:03;24.75;;;10.13;;
32734;SDS011;19112;51.076;3.706;2024-03-25T01:03:30;23.02;;;9.45;;
32734;SDS011;19112;51.076;3.706;2024-03-25T01:05:57;31.27;;;12.15;;
32734;SDS011;19112;51.076;3.706;2024-03-25T01:08:23;30.23;;;11.27;;
32734;SDS011;19112;51.076;3.706;2024-03-25T01:10:51;26.27;;;11.80;;
32734;SDS011;19112;51.076;3.706;2024-03-25T01:13:17;28.55;;;12.13;;
32734;SDS011;19112;51.076;3.706;2024-03-25T01:15:43;23.83;;;10.55;;
32734;SDS011;19112;51.076;3.706;2024-03-25T01:18:09;24.67;;;11.35;;
32734;SDS011;19112;51.076;3.706;2024-03-25T01:20:37;26.63;;;10.50;;
32734;SDS011;19112;51.076;3.706;2024-03-25T01:23:04;25.30;;;10.52;;
32734;SDS011;19112;51.076;3.706;2024-03-25T01:25:30;25.90;;;10.90;;
32734;SDS011;19112;51.076;3.706;2024-03-25T01:27:56;25.48;;;11.05;;
32734;SDS011;19112;51.076;3.706;2024-03-25T01:30:23;21.38;;;9.63;;
32734;SDS011;19112;51.076;3.706;2024-03-25T01:32:51;26.98;;;11.18;;
32734;SDS011;19112;51.076;3.706;2024-03-25T01:35:17;24.15;;;10.93;;
32734;SDS011;19112;51.076;3.706;2024-03-25T01:37:42;27.50;;;11.73;;
32734;SDS011;19112;51.076;3.706;2024-03-25T01:40:08;25.60;;;11.40;;
32734;SDS011;19112;51.076;3.706;2024-03-25T01:42:36;27.67;;;11.13;;
32734;SDS011;19112;51.076;3.706;2024-03-25T01:45:03;21.17;;;10.00;;
32734;SDS011;19112;51.076;3.706;2024-03-25T01:47:30;24.25;;;10.80;;
32734;SDS011;19112;51.076;3.706;2024-03-25T01:49:58;26.10;;;11.45;;
32734;SDS011;19112;51.076;3.706;2024-03-25T01:52:26;21.85;;;8.70;;
32734;SDS011;19112;51.076;3.706;2024-03-25T01:54:55;27.75;;;11.30;;
32734;SDS011;19112;51.076;3.706;2024-03-25T01:57:23;20.13;;;9.40;;
32734;SDS011;19112;51.076;3.706;2024-03-25T01:59:49;24.98;;;10.45;;
32734;SDS011;19112;51.076;3.706;2024-03-25T02:02:15;27.40;;;10.68;;
32734;SDS011;19112;51.076;3.706;2024-03-25T02:04:41;25.60;;;9.52;;
32734;SDS011;19112;51.076;3.706;2024-03-25T02:07:09;24.05;;;9.82;;
32734;SDS011;19112;51.076;3.706;2024-03-25T02:09:40;25.90;;;10.93;;
32734;SDS011;19112;51.076;3.706;2024-03-25T02:12:09;26.50;;;11.20;;
32734;SDS011;19112;51.076;3.706;2024-03-25T02:14:36;30.90;;;11.32;;
32734;SDS011;19112;51.076;3.706;2024-03-25T02:17:02;22.60;;;9.70;;
32734;SDS011;19112;51.076;3.706;2024-03-25T02:21:58;25.38;;;8.80;;
32734;SDS011;19112;51.076;3.706;2024-03-25T02:24:25;21.90;;;8.80;;
32734;SDS011;19112;51.076;3.706;2024-03-25T02:26:52;25.77;;;10.40;;
32734;SDS011;19112;51.076;3.706;2024-03-25T02:29:19;24.08;;;9.85;;
32734;SDS011;19112;51.076;3.706;2024-03-25T02:31:45;22.70;;;9.23;;
32734;SDS011;19112;51.076;3.706;2024-03-25T02:34:12;24.90;;;10.18;;
32734;SDS011;19112;51.076;3.706;2024-03-25T02:36:39;26.88;;;10.07;;
32734;SDS011;19112;51.076;3.706;2024-03-25T02:39:08;23.30;;;9.00;;
32734;SDS011;19112;51.076;3.706;2024-03-25T02:41:35;25.35;;;9.38;;
32734;SDS011;19112;51.076;3.706;2024-03-25T02:44:02;27.08;;;9.63;;
32734;SDS011;19112;51.076;3.706;2024-03-25T02:46:29;24.60;;;9.50;;
32734;SDS011;19112;51.076;3.706;2024-03-25T02:48:56;26.42;;;9.65;;
32734;SDS011;19112;51.076;3.706;2024-03-25T02:51:24;28.70;;;10.20;;
32734;SDS011;19112;51.076;3.706;2024-03-25T02:53:52;23.35;;;9.15;;
32734;SDS011;19112;51.076;3.706;2024-03-25T02:56:18;23.95;;;8.65;;
32734;SDS011;19112;51.076;3.706;2024-03-25T02:58:46;23.27;;;9.57;;
32734;SDS011;19112;51.076;3.706;2024-03-25T03:01:12;26.42;;;9.93;;
32734;SDS011;19112;51.076;3.706;2024-03-25T03:03:40;23.50;;;8.50;;
32734;SDS011;19112;51.076;3.706;2024-03-25T03:06:06;27.35;;;9.43;;
32734;SDS011;19112;51.076;3.706;2024-03-25T03:08:32;25.70;;;10.10;;
32734;SDS011;19112;51.076;3.706;2024-03-25T03:10:59;23.23;;;8.52;;
32734;SDS011;19112;51.076;3.706;2024-03-25T03:13:27;26.33;;;8.95;;
32734;SDS011;19112;51.076;3.706;2024-03-25T03:15:56;25.15;;;9.40;;
32734;SDS011;19112;51.076;3.706;2024-03-25T03:18:24;28.58;;;10.32;;
32734;SDS011;19112;51.076;3.706;2024-03-25T03:20:50;23.15;;;8.18;;
32734;SDS011;19112;51.076;3.706;2024-03-25T03:25:44;24.80;;;8.90;;
32734;SDS011;19112;51.076;3.706;2024-03-25T03:28:11;22.25;;;8.43;;
32734;SDS011;19112;51.076;3.706;2024-03-25T03:30:39;20.30;;;7.57;;
32734;SDS011;19112;51.076;3.706;2024-03-25T03:33:09;19.77;;;7.45;;
32734;SDS011;19112;51.076;3.706;2024-03-25T03:38:11;24.88;;;9.82;;
32734;SDS011;19112;51.076;3.706;2024-03-25T03:40:38;32.72;;;9.98;;
32734;SDS011;19112;51.076;3.706;2024-03-25T03:43:04;20.52;;;7.65;;
32734;SDS011;19112;51.076;3.706;2024-03-25T03:45:32;23.67;;;8.05;;
32734;SDS011;19112;51.076;3.706;2024-03-25T03:48:06;30.60;;;9.07;;
32734;SDS011;19112;51.076;3.706;2024-03-25T03:50:45;21.98;;;8.13;;
32734;SDS011;19112;51.076;3.706;2024-03-25T03:53:13;27.42;;;9.20;;
32734;SDS011;19112;51.076;3.706;2024-03-25T03:55:40;28.00;;;9.60;;
32734;SDS011;19112;51.076;3.706;2024-03-25T03:58:06;31.83;;;9.77;;
32734;SDS011;19112;51.076;3.706;2024-03-25T04:00:35;21.15;;;7.75;;
32734;SDS011;19112;51.076;3.706;2024-03-25T04:03:01;28.52;;;8.77;;
32734;SDS011;19112;51.076;3.706;2024-03-25T04:05:30;23.83;;;8.88;;
32734;SDS011;19112;51.076;3.706;2024-03-25T04:07:56;23.35;;;8.40;;
32734;SDS011;19112;51.076;3.706;2024-03-25T04:10:22;22.20;;;8.20;;
32734;SDS011;19112;51.076;3.706;2024-03-25T04:12:50;28.20;;;9.25;;
32734;SDS011;19112;51.076;3.706;2024-03-25T04:15:17;22.38;;;7.70;;
32734;SDS011;19112;51.076;3.706;2024-03-25T04:17:50;24.65;;;8.65;;
32734;SDS011;19112;51.076;3.706;2024-03-25T04:20:17;27.40;;;10.30;;
32734;SDS011;19112;51.076;3.706;2024-03-25T04:22:45;22.80;;;8.63;;
32734;SDS011;19112;51.076;3.706;2024-03-25T04:25:13;26.23;;;7.63;;
32734;SDS011;19112;51.076;3.706;2024-03-25T04:27:40;23.00;;;7.60;;
32734;SDS011;19112;51.076;3.706;2024-03-25T04:32:37;23.55;;;7.97;;
32734;SDS011;19112;51.076;3.706;2024-03-25T04:35:05;24.48;;;8.02;;
32734;SDS011;19112;51.076;3.706;2024-03-25T04:37:34;29.58;;;8.30;;
32734;SDS011;19112;51.076;3.706;2024-03-25T04:40:16;29.13;;;7.72;;
32734;SDS011;19112;51.076;3.706;2024-03-25T04:42:45;24.90;;;7.68;;
32734;SDS011;19112;51.076;3.706;2024-03-25T04:45:14;34.50;;;9.15;;
32734;SDS011;19112;51.076;3.706;2024-03-25T04:47:42;24.38;;;8.02;;
32734;SDS011;19112;51.076;3.706;2024-03-25T04:50:09;28.35;;;7.97;;
32734;SDS011;19112;51.076;3.706;2024-03-25T04:52:35;24.38;;;7.78;;
32734;SDS011;19112;51.076;3.706;2024-03-25T04:55:03;24.52;;;7.90;;
32734;SDS011;19112;51.076;3.706;2024-03-25T04:57:30;24.58;;;8.05;;
32734;SDS011;19112;51.076;3.706;2024-03-25T04:59:56;31.70;;;8.70;;
32734;SDS011;19112;51.076;3.706;2024-03-25T05:02:23;29.60;;;8.30;;
32734;SDS011;19112;51.076;3.706;2024-03-25T05:04:49;26.08;;;8.38;;
32734;SDS011;19112;51.076;3.706;2024-03-25T05:09:43;27.70;;;8.45;;
32734;SDS011;19112;51.076;3.706;2024-03-25T05:12:10;35.08;;;9.55;;
32734;SDS011;19112;51.076;3.706;2024-03-25T05:14:35;37.85;;;10.63;;
32734;SDS011;19112;51.076;3.706;2024-03-25T05:17:01;33.30;;;10.95;;
32734;SDS011;19112;51.076;3.706;2024-03-25T05:19:31;34.97;;;10.75;;
32734;SDS011;19112;51.076;3.706;2024-03-25T05:21:57;38.65;;;10.95;;
32734;SDS011;19112;51.076;3.706;2024-03-25T05:24:24;44.35;;;11.63;;
32734;SDS011;19112;51.076;3.706;2024-03-25T05:26:50;40.95;;;11.57;;
32734;SDS011;19112;51.076;3.706;2024-03-25T05:29:18;36.58;;;11.27;;
32734;SDS011;19112;51.076;3.706;2024-03-25T05:31:57;34.33;;;11.27;;
32734;SDS011;19112;51.076;3.706;2024-03-25T05:34:26;37.78;;;12.32;;
32734;SDS011;19112;51.076;3.706;2024-03-25T05:36:52;41.75;;;11.93;;
32734;SDS011;19112;51.076;3.706;2024-03-25T05:39:20;43.50;;;11.75;;
32734;SDS011;19112;51.076;3.706;2024-03-25T05:41:46;32.75;;;10.10;;
32734;SDS011;19112;51.076;3.706;2024-03-25T05:44:13;46.45;;;12.18;;
32734;SDS011;19112;51.076;3.706;2024-03-25T05:46:39;36.55;;;12.05;;
32734;SDS011;19112;51.076;3.706;2024-03-25T05:49:05;46.63;;;14.07;;
32734;SDS011;19112;51.076;3.706;2024-03-25T05:51:32;47.30;;;12.95;;
32734;SDS011;19112;51.076;3.706;2024-03-25T05:54:01;40.72;;;13.10;;
32734;SDS011;19112;51.076;3.706;2024-03-25T05:56:27;44.92;;;13.75;;
32734;SDS011;19112;51.076;3.706;2024-03-25T05:58:57;41.13;;;12.55;;
32734;SDS011;19112;51.076;3.706;2024-03-25T06:01:24;37.85;;;12.60;;
32734;SDS011;19112;51.076;3.706;2024-03-25T06:03:51;46.08;;;12.80;;
32734;SDS011;19112;51.076;3.706;2024-03-25T06:06:17;32.08;;;11.10;;
32734;SDS011;19112;51.076;3.706;2024-03-25T06:08:43;44.83;;;13.15;;
32734;SDS011;19112;51.076;3.706;2024-03-25T06:11:09;46.03;;;13.57;;
32734;SDS011;19112;51.076;3.706;2024-03-25T06:13:36;42.00;;;14.13;;
32734;SDS011;19112;51.076;3.706;2024-03-25T06:18:31;54.67;;;12.95;;
32734;SDS011;19112;51.076;3.706;2024-03-25T06:20:58;46.78;;;13.80;;
32734;SDS011;19112;51.076;3.706;2024-03-25T06:23:25;48.67;;;13.43;;
32734;SDS011;19112;51.076;3.706;2024-03-25T06:25:53;46.70;;;14.43;;
32734;SDS011;19112;51.076;3.706;2024-03-25T06:28:21;53.25;;;15.15;;
32734;SDS011;19112;51.076;3.706;2024-03-25T06:30:47;53.63;;;14.43;;
32734;SDS011;19112;51.076;3.706;2024-03-25T06:33:34;55.45;;;15.13;;
32734;SDS011;19112;51.076;3.706;2024-03-25T06:36:19;66.10;;;16.15;;
32734;SDS011;19112;51.076;3.706;2024-03-25T06:38:47;56.95;;;13.57;;
32734;SDS011;19112;51.076;3.706;2024-03-25T06:41:13;52.47;;;12.98;;
32734;SDS011;19112;51.076;3.706;2024-03-25T06:43:39;49.20;;;14.82;;
32734;SDS011;19112;51.076;3.706;2024-03-25T06:46:06;50.58;;;13.48;;
32734;SDS011;19112;51.076;3.706;2024-03-25T06:48:33;39.92;;;11.65;;
32734;SDS011;19112;51.076;3.706;2024-03-25T06:51:02;46.10;;;12.75;;
32734;SDS011;19112;51.076;3.706;2024-03-25T06:53:30;63.83;;;13.38;;
32734;SDS011;19112;51.076;3.706;2024-03-25T06:55:58;45.63;;;12.73;;
32734;SDS011;19112;51.076;3.706;2024-03-25T06:58:25;40.47;;;11.70;;
32734;SDS011;19112;51.076;3.706;2024-03-25T07:00:54;47.08;;;12.15;;
32734;SDS011;19112;51.076;3.706;2024-03-25T07:03:22;44.97;;;13.20;;
32734;SDS011;19112;51.076;3.706;2024-03-25T07:05:49;39.92;;;11.80;;
32734;SDS011;19112;51.076;3.706;2024-03-25T07:08:17;49.17;;;12.80;;
32734;SDS011;19112;51.076;3.706;2024-03-25T07:10:47;48.95;;;13.13;;
32734;SDS011;19112;51.076;3.706;2024-03-25T07:13:15;44.17;;;12.50;;
32734;SDS011;19112;51.076;3.706;2024-03-25T07:15:44;51.15;;;13.90;;
32734;SDS011;19112;51.076;3.706;2024-03-25T07:18:10;38.55;;;11.75;;
32734;SDS011;19112;51.076;3.706;2024-03-25T07:20:38;50.75;;;12.93;;
32734;SDS011;19112;51.076;3.706;2024-03-25T07:23:09;40.22;;;12.25;;
32734;SDS011;19112;51.076;3.706;2024-03-25T07:25:36;42.60;;;10.60;;
32734;SDS011;19112;51.076;3.706;2024-03-25T07:28:02;44.03;;;12.00;;
32734;SDS011;19112;51.076;3.706;2024-03-25T07:30:32;38.83;;;11.27;;
32734;SDS011;19112;51.076;3.706;2024-03-25T07:32:59;46.05;;;12.88;;
32734;SDS011;19112;51.076;3.706;2024-03-25T07:35:27;50.65;;;12.93;;
32734;SDS011;19112;51.076;3.706;2024-03-25T07:37:53;42.58;;;12.13;;
32734;SDS011;19112;51.076;3.706;2024-03-25T07:40:19;47.05;;;13.15;;
32734;SDS011;19112;51.076;3.706;2024-03-25T07:42:47;37.55;;;12.43;;
32734;SDS011;19112;51.076;3.706;2024-03-25T07:45:14;44.28;;;12.73;;
32734;SDS011;19112;51.076;3.706;2024-03-25T07:47:40;38.95;;;11.23;;
32734;SDS011;19112;51.076;3.706;2024-03-25T07:50:07;47.33;;;11.80;;
32734;SDS011;19112;51.076;3.706;2024-03-25T07:52:34;45.08;;;10.98;;
32734;SDS011;19112;51.076;3.706;2024-03-25T07:55:05;50.72;;;11.98;;
32734;SDS011;19112;51.076;3.706;2024-03-25T07:57:32;41.88;;;11.90;;
32734;SDS011;19112;51.076;3.706;2024-03-25T07:59:59;44.10;;;11.20;;
32734;SDS011;19112;51.076;3.706;2024-03-25T08:02:25;36.05;;;11.18;;
32734;SDS011;19112;51.076;3.706;2024-03-25T08:04:52;37.92;;;11.32;;
32734;SDS011;19112;51.076;3.706;2024-03-25T08:07:17;42.33;;;11.07;;
32734;SDS011;19112;51.076;3.706;2024-03-25T08:09:43;36.88;;;10.63;;
32734;SDS011;19112;51.076;3.706;2024-03-25T08:12:09;40.50;;;11.70;;
32734;SDS011;19112;51.076;3.706;2024-03-25T08:14:35;49.13;;;11.80;;
32734;SDS011;19112;51.076;3.706;2024-03-25T08:17:02;38.00;;;10.65;;
32734;SDS011;19112;51.076;3.706;2024-03-25T08:19:29;45.70;;;11.55;;
32734;SDS011;19112;51.076;3.706;2024-03-25T08:21:56;31.92;;;10.30;;
32734;SDS011;19112;51.076;3.706;2024-03-25T08:24:23;36.58;;;11.15;;
32734;SDS011;19112;51.076;3.706;2024-03-25T08:26:50;34.05;;;10.38;;
32734;SDS011;19112;51.076;3.706;2024-03-25T08:29:17;31.70;;;9.95;;
32734;SDS011;19112;51.076;3.706;2024-03-25T08:31:43;36.67;;;10.23;;
32734;SDS011;19112;51.076;3.706;2024-03-25T08:34:11;40.03;;;11.07;;
32734;SDS011;19112;51.076;3.706;2024-03-25T08:36:38;41.83;;;11.18;;
32734;SDS011;19112;51.076;3.706;2024-03-25T08:39:08;34.17;;;10.70;;
32734;SDS011;19112;51.076;3.706;2024-03-25T08:41:36;34.00;;;11.05;;
32734;SDS011;19112;51.076;3.706;2024-03-25T08:44:02;35.33;;;11.23;;
32734;SDS011;19112;51.076;3.706;2024-03-25T08:46:29;39.10;;;11.05;;
32734;SDS011;19112;51.076;3.706;2024-03-25T08:48:57;43.50;;;12.05;;
32734;SDS011;19112;51.076;3.706;2024-03-25T08:51:23;37.70;;;10.93;;
32734;SDS011;19112;51.076;3.706;2024-03-25T08:53:50;33.83;;;11.20;;
32734;SDS011;19112;51.076;3.706;2024-03-25T08:56:16;36.67;;;11.02;;
32734;SDS011;19112;51.076;3.706;2024-03-25T08:58:42;35.67;;;11.35;;
32734;SDS011;19112;51.076;3.706;2024-03-25T09:01:09;40.72;;;12.48;;
32734;SDS011;19112;51.076;3.706;2024-03-25T09:03:40;41.75;;;11.27;;
32734;SDS011;19112;51.076;3.706;2024-03-25T09:06:06;39.38;;;11.55;;
32734;SDS011;19112;51.076;3.706;2024-03-25T09:08:32;34.10;;;11.25;;
32734;SDS011;19112;51.076;3.706;2024-03-25T09:11:19;36.00;;;11.25;;
32734;SDS011;19112;51.076;3.706;2024-03-25T09:13:45;40.83;;;11.35;;
32734;SDS011;19112;51.076;3.706;2024-03-25T09:16:12;39.33;;;12.00;;
32734;SDS011;19112;51.076;3.706;2024-03-25T09:18:39;37.45;;;12.18;;
32734;SDS011;19112;51.076;3.706;2024-03-25T09:21:06;39.42;;;12.48;;
32734;SDS011;19112;51.076;3.706;2024-03-25T09:23:32;37.67;;;11.95;;
32734;SDS011;19112;51.076;3.706;2024-03-25T09:28:29;37.42;;;11.07;;
32734;SDS011;19112;51.076;3.706;2024-03-25T09:30:55;34.67;;;11.48;;
32734;SDS011;19112;51.076;3.706;2024-03-25T09:33:21;31.13;;;10.43;;
32734;SDS011;19112;51.076;3.706;2024-03-25T09:35:47;33.88;;;10.45;;
32734;SDS011;19112;51.076;3.706;2024-03-25T09:38:14;27.45;;;9.82;;
32734;SDS011;19112;51.076;3.706;2024-03-25T09:40:40;34.17;;;11.07;;
32734;SDS011;19112;51.076;3.706;2024-03-25T09:43:09;30.33;;;10.48;;
32734;SDS011;19112;51.076;3.706;2024-03-25T09:45:47;32.35;;;10.60;;
32734;SDS011;19112;51.076;3.706;2024-03-25T09:48:14;33.60;;;10.05;;
32734;SDS011;19112;51.076;3.706;2024-03-25T09:50:45;36.00;;;10.43;;
32734;SDS011;19112;51.076;3.706;2024-03-25T09:53:11;32.42;;;9.38;;
32734;SDS011;19112;51.076;3.706;2024-03-25T09:55:38;32.70;;;9.60;;
32734;SDS011;19112;51.076;3.706;2024-03-25T09:58:04;31.27;;;10.27;;
32734;SDS011;19112;51.076;3.706;2024-03-25T10:00:30;27.92;;;9.32;;
32734;SDS011;19112;51.076;3.706;2024-03-25T10:02:56;27.27;;;8.77;;
32734;SDS011;19112;51.076;3.706;2024-03-25T10:05:22;30.60;;;8.70;;
32734;SDS011;19112;51.076;3.706;2024-03-25T10:07:48;30.90;;;8.82;;
32734;SDS011;19112;51.076;3.706;2024-03-25T10:10:18;31.00;;;9.10;;
32734;SDS011;19112;51.076;3.706;2024-03-25T10:12:48;29.85;;;8.75;;
32734;SDS011;19112;51.076;3.706;2024-03-25T10:15:17;26.30;;;9.18;;
32734;SDS011;19112;51.076;3.706;2024-03-25T10:17:43;27.60;;;8.82;;
32734;SDS011;19112;51.076;3.706;2024-03-25T10:20:15;31.13;;;9.00;;
32734;SDS011;19112;51.076;3.706;2024-03-25T10:22:45;28.65;;;9.02;;
32734;SDS011;19112;51.076;3.706;2024-03-25T10:25:25;28.92;;;8.18;;
32734;SDS011;19112;51.076;3.706;2024-03-25T10:27:53;30.23;;;7.82;;
32734;SDS011;19112;51.076;3.706;2024-03-25T10:30:26;26.77;;;8.57;;
32734;SDS011;19112;51.076;3.706;2024-03-25T10:32:57;29.08;;;8.65;;
32734;SDS011;19112;51.076;3.706;2024-03-25T10:35:25;24.75;;;8.55;;
32734;SDS011;19112;51.076;3.706;2024-03-25T10:37:54;28.52;;;8.25;;
32734;SDS011;19112;51.076;3.706;2024-03-25T10:40:31;26.52;;;8.07;;
32734;SDS011;19112;51.076;3.706;2024-03-25T10:43:01;24.88;;;7.80;;
32734;SDS011;19112;51.076;3.706;2024-03-25T10:45:34;25.45;;;8.32;;
32734;SDS011;19112;51.076;3.706;2024-03-25T10:48:14;24.90;;;6.65;;
32734;SDS011;19112;51.076;3.706;2024-03-25T10:51:09;26.38;;;8.50;;
32734;SDS011;19112;51.076;3.706;2024-03-25T10:53:38;23.58;;;7.10;;
32734;SDS011;19112;51.076;3.706;2024-03-25T10:56:06;26.67;;;8.20;;
32734;SDS011;19112;51.076;3.706;2024-03-25T10:58:33;27.30;;;9.15;;
32734;SDS011;19112;51.076;3.706;2024-03-25T11:00:59;25.73;;;9.00;;
32734;SDS011;19112;51.076;3.706;2024-03-25T11:03:26;22.38;;;7.88;;
32734;SDS011;19112;51.076;3.706;2024-03-25T11:05:54;26.58;;;8.20;;
32734;SDS011;19112;51.076;3.706;2024-03-25T11:08:20;23.45;;;7.95;;
32734;SDS011;19112;51.076;3.706;2024-03-25T11:10:57;23.38;;;7.88;;
32734;SDS011;19112;51.076;3.706;2024-03-25T11:13:26;26.10;;;6.28;;
32734;SDS011;19112;51.076;3.706;2024-03-25T11:15:53;24.15;;;6.72;;
32734;SDS011;19112;51.076;3.706;2024-03-25T11:18:25;26.25;;;6.55;;
32734;SDS011;19112;51.076;3.706;2024-03-25T11:21:05;25.60;;;7.20;;
32734;SDS011;19112;51.076;3.706;2024-03-25T11:23:38;16.75;;;5.85;;
32734;SDS011;19112;51.076;3.706;2024-03-25T11:26:16;21.77;;;5.70;;
32734;SDS011;19112;51.076;3.706;2024-03-25T11:29:07;20.10;;;6.70;;
32734;SDS011;19112;51.076;3.706;2024-03-25T11:31:33;23.80;;;7.68;;
32734;SDS011;19112;51.076;3.706;2024-03-25T11:34:04;17.63;;;5.40;;
32734;SDS011;19112;51.076;3.706;2024-03-25T11:36:31;18.48;;;5.85;;
32734;SDS011;19112;51.076;3.706;2024-03-25T11:38:58;22.35;;;5.75;;
32734;SDS011;19112;51.076;3.706;2024-03-25T11:41:27;21.25;;;5.72;;
32734;SDS011;19112;51.076;3.706;2024-03-25T11:43:54;15.85;;;5.25;;
32734;SDS011;19112;51.076;3.706;2024-03-25T11:46:24;23.63;;;6.28;;
32734;SDS011;19112;51.076;3.706;2024-03-25T11:48:52;17.15;;;6.05;;
32734;SDS011;19112;51.076;3.706;2024-03-25T11:51:19;19.20;;;6.15;;
32734;SDS011;19112;51.076;3.706;2024-03-25T11:53:45;17.58;;;5.38;;
32734;SDS011;19112;51.076;3.706;2024-03-25T11:56:11;21.20;;;5.50;;
32734;SDS011;19112;51.076;3.706;2024-03-25T11:58:38;20.13;;;6.18;;
32734;SDS011;19112;51.076;3.706;2024-03-25T12:01:04;23.08;;;7.50;;
32734;SDS011;19112;51.076;3.706;2024-03-25T12:03:30;20.33;;;6.28;;
32734;SDS011;19112;51.076;3.706;2024-03-25T12:05:58;19.17;;;6.22;;
32734;SDS011;19112;51.076;3.706;2024-03-25T12:08:25;21.52;;;6.38;;
32734;SDS011;19112;51.076;3.706;2024-03-25T12:10:51;17.17;;;5.45;;
32734;SDS011;19112;51.076;3.706;2024-03-25T12:13:37;17.17;;;5.40;;
32734;SDS011;19112;51.076;3.706;2024-03-25T12:16:07;19.40;;;5.25;;
32734;SDS011;19112;51.076;3.706;2024-03-25T12:18:34;17.77;;;4.95;;
32734;SDS011;19112;51.076;3.706;2024-03-25T12:21:02;17.15;;;5.25;;
32734;SDS011;19112;51.076;3.706;2024-03-25T12:23:32;13.07;;;4.72;;
32734;SDS011;19112;51.076;3.706;2024-03-25T12:26:02;17.13;;;4.75;;
32734;SDS011;19112;51.076;3.706;2024-03-25T12:28:32;18.45;;;5.55;;
32734;SDS011;19112;51.076;3.706;2024-03-25T12:31:02;16.90;;;5.88;;
32734;SDS011;19112;51.076;3.706;2024-03-25T12:33:39;20.45;;;5.80;;
32734;SDS011;19112;51.076;3.706;2024-03-25T12:36:06;20.25;;;5.65;;
32734;SDS011;19112;51.076;3.706;2024-03-25T12:38:33;18.27;;;6.18;;
32734;SDS011;19112;51.076;3.706;2024-03-25T12:43:41;17.70;;;6.35;;
32734;SDS011;19112;51.076;3.706;2024-03-25T12:46:09;21.27;;;6.30;;
32734;SDS011;19112;51.076;3.706;2024-03-25T12:48:37;19.45;;;6.50;;
32734;SDS011;19112;51.076;3.706;2024-03-25T12:51:03;21.98;;;6.53;;
32734;SDS011;19112;51.076;3.706;2024-03-25T12:53:29;22.75;;;7.15;;
32734;SDS011;19112;51.076;3.706;2024-03-25T12:55:56;19.90;;;6.50;;
32734;SDS011;19112;51.076;3.706;2024-03-25T12:58:22;16.20;;;6.40;;
32734;SDS011;19112;51.076;3.706;2024-03-25T13:00:48;19.25;;;6.40;;
32734;SDS011;19112;51.076;3.706;2024-03-25T13:03:14;14.30;;;4.60;;
32734;SDS011;19112;51.076;3.706;2024-03-25T13:05:40;14.60;;;4.13;;
32734;SDS011;19112;51.076;3.706;2024-03-25T13:08:08;16.95;;;4.00;;
32734;SDS011;19112;51.076;3.706;2024-03-25T13:10:34;13.68;;;4.45;;
32734;SDS011;19112;51.076;3.706;2024-03-25T13:13:01;13.98;;;3.70;;
32734;SDS011;19112;51.076;3.706;2024-03-25T13:15:28;13.43;;;3.80;;
32734;SDS011;19112;51.076;3.706;2024-03-25T13:17:55;11.20;;;3.85;;
32734;SDS011;19112;51.076;3.706;2024-03-25T13:20:21;12.75;;;3.28;;
32734;SDS011;19112;51.076;3.706;2024-03-25T13:22:48;14.32;;;4.90;;
32734;SDS011;19112;51.076;3.706;2024-03-25T13:25:18;14.85;;;4.47;;
32734;SDS011;19112;51.076;3.706;2024-03-25T13:27:44;14.25;;;3.90;;
32734;SDS011;19112;51.076;3.706;2024-03-25T13:30:10;13.27;;;3.42;;
32734;SDS011;19112;51.076;3.706;2024-03-25T13:32:36;8.75;;;3.30;;
32734;SDS011;19112;51.076;3.706;2024-03-25T13:35:01;9.57;;;3.10;;
32734;SDS011;19112;51.076;3.706;2024-03-25T13:37:28;7.03;;;2.53;;
32734;SDS011;19112;51.076;3.706;2024-03-25T13:42:24;11.45;;;3.50;;
32734;SDS011;19112;51.076;3.706;2024-03-25T13:44:50;10.98;;;3.78;;
32734;SDS011;19112;51.076;3.706;2024-03-25T13:47:16;15.05;;;3.63;;
32734;SDS011;19112;51.076;3.706;2024-03-25T13:49:43;12.07;;;4.28;;
32734;SDS011;19112;51.076;3.706;2024-03-25T13:52:08;12.20;;;3.58;;
32734;SDS011;19112;51.076;3.706;2024-03-25T13:54:34;10.40;;;3.25;;
32734;SDS011;19112;51.076;3.706;2024-03-25T13:57:00;8.25;;;3.13;;
32734;SDS011;19112;51.076;3.706;2024-03-25T13:59:26;11.82;;;3.33;;
32734;SDS011;19112;51.076;3.706;2024-03-25T14:01:53;12.27;;;3.35;;
32734;SDS011;19112;51.076;3.706;2024-03-25T14:04:19;9.40;;;3.28;;
32734;SDS011;19112;51.076;3.706;2024-03-25T14:06:46;14.32;;;3.22;;
32734;SDS011;19112;51.076;3.706;2024-03-25T14:09:24;13.73;;;3.67;;
32734;SDS011;19112;51.076;3.706;2024-03-25T14:11:50;8.90;;;3.03;;
32734;SDS011;19112;51.076;3.706;2024-03-25T14:14:16;12.25;;;3.13;;
32734;SDS011;19112;51.076;3.706;2024-03-25T14:16:42;12.70;;;3.15;;
32734;SDS011;19112;51.076;3.706;2024-03-25T14:19:08;9.98;;;3.10;;
32734;SDS011;19112;51.076;3.706;2024-03-25T14:21:34;13.75;;;3.25;;
32734;SDS011;19112;51.076;3.706;2024-03-25T14:24:00;13.57;;;3.20;;
32734;SDS011;19112;51.076;3.706;2024-03-25T14:26:27;8.80;;;3.00;;
32734;SDS011;19112;51.076;3.706;2024-03-25T14:28:55;9.57;;;3.53;;
32734;SDS011;19112;51.076;3.706;2024-03-25T14:31:21;12.77;;;3.90;;
32734;SDS011;19112;51.076;3.706;2024-03-25T14:33:48;11.00;;;3.00;;
32734;SDS011;19112;51.076;3.706;2024-03-25T14:36:15;10.30;;;3.45;;
32734;SDS011;19112;51.076;3.706;2024-03-25T14:38:41;20.95;;;3.75;;
32734;SDS011;19112;51.076;3.706;2024-03-25T14:41:07;16.38;;;4.65;;
32734;SDS011;19112;51.076;3.706;2024-03-25T14:43:36;11.68;;;3.47;;
32734;SDS011;19112;51.076;3.706;2024-03-25T14:46:02;11.55;;;3.15;;
32734;SDS011;19112;51.076;3.706;2024-03-25T14:48:29;7.82;;;3.38;;
32734;SDS011;19112;51.076;3.706;2024-03-25T14:50:55;9.30;;;3.10;;
32734;SDS011;19112;51.076;3.706;2024-03-25T14:53:21;10.73;;;2.97;;
32734;SDS011;19112;51.076;3.706;2024-03-25T14:55:47;12.15;;;3.03;;